NCAR-RAP Real-Time Weather Data

Output produced by METARs form (24 July 2017  08:50 UTC)
found at http://weather.rap.ucar.edu/surface/
 
Conditions at: KGNV observed 24 July 2017  07:53 UTC
Temperature: 23.3°C (74°F)
Dewpoint: 22.8°C (73°F) [RH = 97%]
Pressure (altimeter): 30.02 inches Hg (1016.7 mb)
[Sea-level pressure: 1016.1 mb]
Winds: from the SSW (210 degrees) at 6 MPH (5 knots; 2.6 m/s)
Visibility: 10 or more miles (16+ km)
Ceiling: at least 12,000 feet AGL
Clouds: sky clear below 12,000 feet AGL
Present Weather: automated observation with no human augmentation;
there may or may not be significant weather present at this time
KGNV 240753Z AUTO 21005KT 10SM CLR 23/23 A3002 RMK AO2 SLP161 T02330228

Conditions at: KGNV observed 24 July 2017  06:53 UTC
Temperature: 23.3°C (74°F)
Dewpoint: 22.8°C (73°F) [RH = 97%]
Pressure (altimeter): 30.03 inches Hg (1017.0 mb)
[Sea-level pressure: 1016.5 mb]
Winds: from the SSW (210 degrees) at 6 MPH (5 knots; 2.6 m/s)
Visibility: 10 or more miles (16+ km)
Ceiling: at least 12,000 feet AGL
Clouds: sky clear below 12,000 feet AGL
Present Weather: automated observation with no human augmentation;
there may or may not be significant weather present at this time
KGNV 240653Z AUTO 21005KT 10SM CLR 23/23 A3003 RMK AO2 SLP165 T02330228

Conditions at: KGNV observed 24 July 2017  05:53 UTC
Temperature: 23.3°C (74°F)
Dewpoint: 22.2°C (72°F) [RH = 94%]
Pressure (altimeter): 30.04 inches Hg (1017.4 mb)
[Sea-level pressure: 1016.9 mb]
Winds: from the S (180 degrees) at 3 MPH (3 knots; 1.6 m/s)
Visibility: 10 or more miles (16+ km)
Ceiling: at least 12,000 feet AGL
Clouds: sky clear below 12,000 feet AGL
Present Weather: automated observation with no human augmentation;
there may or may not be significant weather present at this time
KGNV 240553Z AUTO 18003KT 10SM CLR 23/22 A3004 RMK AO2 SLP169 T02330222 10261 20233 58002

Conditions at: KGNV observed 24 July 2017  04:53 UTC
Temperature: 23.9°C (75°F)
Dewpoint: 22.2°C (72°F) [RH = 90%]
Pressure (altimeter): 30.06 inches Hg (1018.0 mb)
[Sea-level pressure: 1017.5 mb]
Winds: from the S (190 degrees) at 5 MPH (4 knots; 2.1 m/s)
Visibility: 10 or more miles (16+ km)
Ceiling: at least 12,000 feet AGL
Clouds: few clouds at 2600 feet AGL
Present Weather: automated observation with no human augmentation;
there may or may not be significant weather present at this time
KGNV 240453Z AUTO 19004KT 10SM FEW026 24/22 A3006 RMK AO2 SLP175 T02390222 402830228

Conditions at: KGNV observed 24 July 2017  03:53 UTC
Temperature: 23.9°C (75°F)
Dewpoint: 22.8°C (73°F) [RH = 94%]
Pressure (altimeter): 30.05 inches Hg (1017.7 mb)
[Sea-level pressure: 1017.2 mb]
Winds: from the S (180 degrees) at 6 MPH (5 knots; 2.6 m/s)
Visibility: 10 or more miles (16+ km)
Ceiling: at least 12,000 feet AGL
Clouds: sky clear below 12,000 feet AGL
Present Weather: automated observation with no human augmentation;
there may or may not be significant weather present at this time
KGNV 240353Z AUTO 18005KT 10SM CLR 24/23 A3005 RMK AO2 SLP172 T02390228

Conditions at: KGNV observed 24 July 2017  02:53 UTC
Temperature: 23.9°C (75°F)
Dewpoint: 22.8°C (73°F) [RH = 94%]
Pressure (altimeter): 30.04 inches Hg (1017.4 mb)
[Sea-level pressure: 1017.0 mb]
Winds: calm
Visibility: 10 or more miles (16+ km)
Ceiling: at least 12,000 feet AGL
Clouds: sky clear below 12,000 feet AGL
Present Weather: automated observation with no human augmentation;
there may or may not be significant weather present at this time
KGNV 240253Z AUTO 00000KT 10SM CLR 24/23 A3004 RMK AO2 SLP170 T02390228 53016

Conditions at: KGNV observed 24 July 2017  01:53 UTC
Temperature: 24.4°C (76°F)
Dewpoint: 22.8°C (73°F) [RH = 91%]
Pressure (altimeter): 30.03 inches Hg (1017.0 mb)
[Sea-level pressure: 1016.6 mb]
Winds: calm
Visibility: 10 or more miles (16+ km)
Ceiling: at least 12,000 feet AGL
Clouds: sky clear below 12,000 feet AGL
Present Weather: no significant weather observed at this time
KGNV 240153Z 00000KT 10SM CLR 24/23 A3003 RMK AO2 SLP166 T02440228

Conditions at: KGNV observed 24 July 2017  00:53 UTC
Temperature: 25.6°C (78°F)
Dewpoint: 22.2°C (72°F) [RH = 82%]
Pressure (altimeter): 30.01 inches Hg (1016.3 mb)
[Sea-level pressure: 1015.7 mb]
Winds: from the SSW (200 degrees) at 7 MPH (6 knots; 3.1 m/s)
Visibility: 10 or more miles (16+ km)
Ceiling: at least 12,000 feet AGL
Clouds: sky clear below 12,000 feet AGL
Present Weather: no significant weather observed at this time
KGNV 240053Z 20006KT 10SM CLR 26/22 A3001 RMK AO2 SLP157 T02560222

Conditions at: KGNV observed 23 July 2017  23:53 UTC
Temperature: 26.1°C (79°F)
Dewpoint: 22.8°C (73°F) [RH = 82%]
Pressure (altimeter): 30.00 inches Hg (1016.0 mb)
[Sea-level pressure: 1015.4 mb]
Winds: from the SSW (200 degrees) at 7 MPH (6 knots; 3.1 m/s)
Visibility: 10 or more miles (16+ km)
Ceiling: at least 12,000 feet AGL
Clouds: sky clear below 12,000 feet AGL
Present Weather: no significant weather observed at this time
KGNV 232353Z 20006KT 10SM CLR 26/23 A3000 RMK AO2 SLP154 T02610228 10283 20261 55007

Conditions at: KGNV observed 23 July 2017  22:53 UTC
Temperature: 26.7°C (80°F)
Dewpoint: 22.2°C (72°F) [RH = 76%]
Pressure (altimeter): 29.99 inches Hg (1015.7 mb)
[Sea-level pressure: 1015.4 mb]
Winds: from the SSW (200 degrees) at 10 MPH (9 knots; 4.7 m/s)
Visibility: 10 or more miles (16+ km)
Ceiling: at least 12,000 feet AGL
Clouds: scattered clouds at 2400 feet AGL
scattered clouds at 3000 feet AGL
Present Weather: no significant weather observed at this time
KGNV 232253Z 20009KT 10SM SCT024 SCT030 27/22 A2999 RMK AO2 SLP154 T02670222

Conditions at: KGNV observed 23 July 2017  22:27 UTC
Temperature: 26.7°C (80°F)
Dewpoint: 22.2°C (72°F) [RH = 76%]
Pressure (altimeter): 30.00 inches Hg (1016.0 mb)
Winds: from the SW (230 degrees) at 10 MPH (9 knots; 4.7 m/s)
Visibility: 10 or more miles (16+ km)
Ceiling: 3100 feet AGL
Clouds: scattered clouds at 2500 feet AGL
broken clouds at 3100 feet AGL
Present Weather: automated observation with no human augmentation;
there may or may not be significant weather present at this time
KGNV 232227Z AUTO 23009KT 10SM SCT025 BKN031 27/22 A3000 RMK AO2 T02670222

Conditions at: KGNV observed 23 July 2017  22:03 UTC
Temperature: 27.2°C (81°F)
Dewpoint: 22.2°C (72°F) [RH = 74%]
Pressure (altimeter): 30.00 inches Hg (1016.0 mb)
Winds: from the SW (220 degrees) at 9 MPH (8 knots; 4.2 m/s)
Visibility: 10 or more miles (16+ km)
Ceiling: 2400 feet AGL
Clouds: broken clouds at 2400 feet AGL
broken clouds at 2900 feet AGL
Present Weather: automated observation with no human augmentation;
there may or may not be significant weather present at this time
KGNV 232203Z AUTO 22008KT 10SM BKN024 BKN029 27/22 A3000 RMK AO2 T02720222

Conditions at: KGNV observed 23 July 2017  21:53 UTC
Temperature: 27.2°C (81°F)
Dewpoint: 22.2°C (72°F) [RH = 74%]
Pressure (altimeter): 30.01 inches Hg (1016.3 mb)
[Sea-level pressure: 1015.8 mb]
Winds: from the SSW (210 degrees) at 12 MPH (10 knots; 5.2 m/s)
Visibility: 10 or more miles (16+ km)
Ceiling: at least 12,000 feet AGL
Clouds: scattered clouds at 2400 feet AGL
Present Weather: automated observation with no human augmentation;
there may or may not be significant weather present at this time
KGNV 232153Z AUTO 21010KT 10SM SCT024 27/22 A3001 RMK AO2 SLP158 T02720222

Conditions at: KGNV observed 23 July 2017  20:53 UTC
Temperature: 27.2°C (81°F)
Dewpoint: 22.2°C (72°F) [RH = 74%]
Pressure (altimeter): 30.02 inches Hg (1016.7 mb)
[Sea-level pressure: 1016.2 mb]
Winds: from the SSW (200 degrees) at 10 MPH (9 knots; 4.7 m/s)
Visibility: 10 or more miles (16+ km)
Ceiling: at least 12,000 feet AGL
Clouds: scattered clouds at 2300 feet AGL
Present Weather: automated observation with no human augmentation;
there may or may not be significant weather present at this time
KGNV 232053Z AUTO 20009KT 10SM SCT023 27/22 A3002 RMK AO2 SLP162 T02720222 58017

Conditions at: KGNV observed 23 July 2017  19:53 UTC
Temperature: 27.8°C (82°F)
Dewpoint: 22.2°C (72°F) [RH = 72%]
Pressure (altimeter): 30.04 inches Hg (1017.4 mb)
[Sea-level pressure: 1016.8 mb]
Winds: from the WSW (250 degrees) at 14 MPH (12 knots; 6.2 m/s)
Visibility: 10 or more miles (16+ km)
Ceiling: at least 12,000 feet AGL
Clouds: few clouds at 2400 feet AGL
Present Weather: automated observation with no human augmentation;
there may or may not be significant weather present at this time
KGNV 231953Z AUTO 25012KT 10SM FEW024 28/22 A3004 RMK AO2 SLP168 T02780222

Conditions at: KGNV observed 23 July 2017  18:53 UTC
Temperature: 27.8°C (82°F)
Dewpoint: 22.8°C (73°F) [RH = 74%]
Pressure (altimeter): 30.05 inches Hg (1017.7 mb)
[Sea-level pressure: 1017.3 mb]
Winds: from the SW (230 degrees) at 12 MPH (10 knots; 5.2 m/s)
Visibility: 10 or more miles (16+ km)
Ceiling: at least 12,000 feet AGL
Clouds: few clouds at 2200 feet AGL
scattered clouds at 2700 feet AGL
scattered clouds at 3100 feet AGL
Present Weather: no significant weather observed at this time
KGNV 231853Z 23010KT 10SM FEW022 SCT027 SCT031 28/23 A3005 RMK AO2 SLP173 T02780228

Conditions at: KGNV observed 23 July 2017  17:53 UTC
Temperature: 28.3°C (83°F)
Dewpoint: 22.8°C (73°F) [RH = 72%]
Pressure (altimeter): 30.07 inches Hg (1018.4 mb)
[Sea-level pressure: 1017.9 mb]
Winds: from the S (190 degrees) at 14 MPH (12 knots; 6.2 m/s)
Visibility: 10 or more miles (16+ km)
Ceiling: 3900 feet AGL
Clouds: few clouds at 2600 feet AGL
scattered clouds at 3000 feet AGL
broken clouds at 3900 feet AGL
Present Weather: no significant weather observed at this time
KGNV 231753Z 19012KT 10SM FEW026 SCT030 BKN039 28/23 A3007 RMK AO2 SLP179 60029 T02830228 10283 20233 58003

Conditions at: KGNV observed 23 July 2017  17:34 UTC
Temperature: 27.8°C (82°F)
Dewpoint: 22.2°C (72°F) [RH = 72%]
Pressure (altimeter): 30.07 inches Hg (1018.4 mb)
Winds: from the SW (220 degrees) at 12 MPH (10 knots; 5.2 m/s)
Visibility: 10 or more miles (16+ km)
Ceiling: 3700 feet AGL
Clouds: scattered clouds at 2500 feet AGL
scattered clouds at 3000 feet AGL
broken clouds at 3700 feet AGL
Present Weather: no significant weather observed at this time
KGNV 231734Z 22010KT 10SM SCT025 SCT030 BKN037 28/22 A3007 RMK AO2 T02780222

Conditions at: KGNV observed 23 July 2017  17:25 UTC
Temperature: 27.8°C (82°F)
Dewpoint: 22.2°C (72°F) [RH = 72%]
Pressure (altimeter): 30.08 inches Hg (1018.7 mb)
Winds: from the SSW (210 degrees) at 12 MPH (10 knots; 5.2 m/s)
Visibility: 10 or more miles (16+ km)
Ceiling: 2600 feet AGL
Clouds: broken clouds at 2600 feet AGL
broken clouds at 3500 feet AGL
Present Weather: no significant weather observed at this time
KGNV 231725Z 21010KT 10SM BKN026 BKN035 28/22 A3008 RMK AO2 T02780222

Conditions at: KGNV observed 23 July 2017  16:53 UTC
Temperature: 28.3°C (83°F)
Dewpoint: 22.8°C (73°F) [RH = 72%]
Pressure (altimeter): 30.08 inches Hg (1018.7 mb)
[Sea-level pressure: 1018.3 mb]
Winds: from the SW (220 degrees) at 8 MPH (7 knots; 3.6 m/s)
Visibility: 10 or more miles (16+ km)
Ceiling: 3100 feet AGL
Clouds: few clouds at 2300 feet AGL
broken clouds at 3100 feet AGL
Present Weather: no significant weather observed at this time
KGNV 231653Z 22007KT 10SM FEW023 BKN031 28/23 A3008 RMK AO2 SLP183 T02830228

Conditions at: KGNV observed 23 July 2017  16:43 UTC
Temperature: 27.2°C (81°F)
Dewpoint: 22.2°C (72°F) [RH = 74%]
Pressure (altimeter): 30.08 inches Hg (1018.7 mb)
Winds: from the SSW (210 degrees) at 9 MPH (8 knots; 4.2 m/s)
Visibility: 10 or more miles (16+ km)
Ceiling: 2900 feet AGL
Clouds: scattered clouds at 2300 feet AGL
broken clouds at 2900 feet AGL
broken clouds at 3700 feet AGL
Present Weather: no significant weather observed at this time
KGNV 231643Z 21008KT 10SM SCT023 BKN029 BKN037 27/22 A3008 RMK AO2 T02720222

Conditions at: KGNV observed 23 July 2017  16:04 UTC
Temperature: 26.7°C (80°F)
Dewpoint: 23.3°C (74°F) [RH = 82%]
Pressure (altimeter): 30.09 inches Hg (1019.0 mb)
Winds: from the SSW (210 degrees) at 5 MPH (4 knots; 2.1 m/s)
Visibility: 10 or more miles (16+ km)
Ceiling: at least 12,000 feet AGL
Clouds: scattered clouds at 1600 feet AGL
Present Weather: no significant weather observed at this time
KGNV 231604Z 21004KT 10SM SCT016 27/23 A3009 RMK AO2 T02670233

Conditions at: KGNV observed 23 July 2017  15:53 UTC
Temperature: 26.7°C (80°F)
Dewpoint: 23.3°C (74°F) [RH = 82%]
Pressure (altimeter): 30.09 inches Hg (1019.0 mb)
[Sea-level pressure: 1018.5 mb]
Winds: from the SW (230 degrees) at 8 MPH (7 knots; 3.6 m/s)
Visibility: 10 or more miles (16+ km)
Ceiling: 1300 feet AGL
Clouds: broken clouds at 1300 feet AGL
Present Weather: no significant weather observed at this time
KGNV 231553Z 23007KT 10SM BKN013 27/23 A3009 RMK AO2 SLP185 T02670233

Conditions at: KGNV observed 23 July 2017  15:38 UTC
Temperature: 26.7°C (80°F)
Dewpoint: 23.3°C (74°F) [RH = 82%]
Pressure (altimeter): 30.08 inches Hg (1018.7 mb)
Winds: from the SW (230 degrees) at 9 MPH (8 knots; 4.2 m/s)
Visibility: 10 or more miles (16+ km)
Ceiling: 1300 feet AGL
Clouds: broken clouds at 1300 feet AGL
broken clouds at 11000 feet AGL
Present Weather: no significant weather observed at this time
KGNV 231538Z 23008KT 200V260 10SM BKN013 BKN110 27/23 A3008 RMK AO2 T02670233

Conditions at: KGNV observed 23 July 2017  14:53 UTC
Temperature: 25.0°C (77°F)
Dewpoint: 23.9°C (75°F) [RH = 94%]
Pressure (altimeter): 30.08 inches Hg (1018.7 mb)
[Sea-level pressure: 1018.2 mb]
Winds: from the S (190 degrees) at 6 MPH (5 knots; 2.6 m/s)
Visibility: 10 or more miles (16+ km)
Ceiling: 9500 feet AGL
Clouds: few clouds at 5500 feet AGL
few clouds at 7500 feet AGL
broken clouds at 9500 feet AGL
Present Weather: no significant weather observed at this time
KGNV 231453Z 19005KT 10SM FEW055 FEW075 BKN095 25/24 A3008 RMK AO2 LTG DSNT E AND SE RAE47 SLP182 P0002 60029 T02500239 51005

Conditions at: KGNV observed 23 July 2017  13:53 UTC
Temperature: 23.9°C (75°F)
Dewpoint: 23.3°C (74°F) [RH = 96%]
Pressure (altimeter): 30.08 inches Hg (1018.7 mb)
[Sea-level pressure: 1018.1 mb]
Winds: from the WSW (240 degrees) at 5 MPH (4 knots; 2.1 m/s)
Visibility: 9 miles (14 km)
Ceiling: 9000 feet AGL
Clouds: scattered clouds at 3400 feet AGL
broken clouds at 9000 feet AGL
overcast cloud deck at 11000 feet AGL
Present Weather: -RA  (light rain)
KGNV 231353Z 24004KT 9SM -RA SCT034 BKN090 OVC110 24/23 A3008 RMK AO2 LTG DSNT SE RAB11 SLP181 P0024 T02390233

Conditions at: KGNV observed 23 July 2017  13:45 UTC
Temperature: 23.9°C (75°F)
Dewpoint: 22.8°C (73°F) [RH = 94%]
Pressure (altimeter): 30.08 inches Hg (1018.7 mb)
Winds: from the WSW (250 degrees) at 5 MPH (4 knots; 2.1 m/s)
Visibility: 3 miles (5 km)
Ceiling: 3900 feet AGL
Clouds: few clouds at 1500 feet AGL
broken clouds at 3900 feet AGL
overcast cloud deck at 11000 feet AGL
Present Weather: -RA BR  (light rain, mist)
KGNV 231345Z 25004KT 3SM -RA BR FEW015 BKN039 OVC110 24/23 A3008 RMK AO2 LTG DSNT SE RAB11 P0024 T02390228

Conditions at: KGNV observed 23 July 2017  13:38 UTC
Temperature: 23.3°C (74°F)
Dewpoint: 22.8°C (73°F) [RH = 97%]
Pressure (altimeter): 30.09 inches Hg (1019.0 mb)
Winds: from the W (260 degrees) at 8 MPH (7 knots; 3.6 m/s)
Visibility: 1.00 miles (1.61 km)
Ceiling: 3200 feet AGL
Clouds: few clouds at 900 feet AGL
broken clouds at 3200 feet AGL
overcast cloud deck at 7500 feet AGL
Present Weather: +RA BR  (heavy rain, mist)
KGNV 231338Z 26007KT 1SM +RA BR FEW009 BKN032 OVC075 23/23 A3009 RMK AO2 LTG DSNT SE RAB11 P0021 T02330228

Conditions at: KGNV observed 23 July 2017  13:34 UTC
Temperature: 23.9°C (75°F)
Dewpoint: 22.8°C (73°F) [RH = 94%]
Pressure (altimeter): 30.09 inches Hg (1019.0 mb)
Winds: from the W (260 degrees) at 8 MPH (7 knots; 3.6 m/s)
Visibility: 0.75 miles (1.21 km)
Ceiling: 2600 feet AGL
Clouds: few clouds at 900 feet AGL
broken clouds at 2600 feet AGL
overcast cloud deck at 3900 feet AGL
Present Weather: +RA BR  (heavy rain, mist)
KGNV 231334Z 26007KT 3/4SM +RA BR FEW009 BKN026 OVC039 24/23 A3009 RMK AO2 RAB11 P0015 T02390228

Conditions at: KGNV observed 23 July 2017  13:28 UTC
Temperature: 23.9°C (75°F)
Dewpoint: 23.3°C (74°F) [RH = 96%]
Pressure (altimeter): 30.09 inches Hg (1019.0 mb)
Winds: from the WSW (250 degrees) at 10 MPH (9 knots; 4.7 m/s)
Visibility: 2.50 miles (4.02 km)
Ceiling: 2200 feet AGL
Clouds: few clouds at 900 feet AGL
broken clouds at 2200 feet AGL
overcast cloud deck at 3900 feet AGL
Present Weather: -RA BR  (light rain, mist)
KGNV 231328Z 25009KT 2 1/2SM -RA BR FEW009 BKN022 OVC039 24/23 A3009 RMK AO2 RAB11 P0002 T02390233

Conditions at: KGNV observed 23 July 2017  12:53 UTC
Temperature: 23.9°C (75°F)
Dewpoint: 23.3°C (74°F) [RH = 96%]
Pressure (altimeter): 30.08 inches Hg (1018.7 mb)
[Sea-level pressure: 1018.2 mb]
Winds: from the S (180 degrees) at 3 MPH (3 knots; 1.6 m/s)
Visibility: 10 or more miles (16+ km)
Ceiling: 2400 feet AGL
Clouds: scattered clouds at 1900 feet AGL
broken clouds at 2400 feet AGL
broken clouds at 3100 feet AGL
Present Weather: no significant weather observed at this time
KGNV 231253Z 18003KT 10SM SCT019 BKN024 BKN031 24/23 A3008 RMK AO2 RAB25E47 SLP182 P0003 T02390233

Conditions at: KGNV observed 23 July 2017  12:24 UTC
Temperature: 23.9°C (75°F)
Dewpoint: 22.8°C (73°F) [RH = 94%]
Pressure (altimeter): 30.07 inches Hg (1018.4 mb)
Winds: from the S (170 degrees) at 3 MPH (3 knots; 1.6 m/s)
Visibility: 8 miles (13 km)
Ceiling: 2600 feet AGL
Clouds: few clouds at 1700 feet AGL
broken clouds at 2600 feet AGL
Present Weather: no significant weather observed at this time
KGNV 231224Z 17003KT 8SM FEW017 BKN026 24/23 A3007 RMK AO2 T02390228

Conditions at: KGNV observed 23 July 2017  11:53 UTC
Temperature: 23.3°C (74°F)
Dewpoint: 22.8°C (73°F) [RH = 97%]
Pressure (altimeter): 30.06 inches Hg (1018.0 mb)
[Sea-level pressure: 1017.7 mb]
Winds: from the S (170 degrees) at 3 MPH (3 knots; 1.6 m/s)
Visibility: 10 or more miles (16+ km)
Ceiling: at least 12,000 feet AGL
Clouds: sky clear below 12,000 feet AGL
Present Weather: no significant weather observed at this time
KGNV 231153Z 17003KT 10SM CLR 23/23 A3006 RMK AO2 SLP177 60109 70214 T02330228 10244 20228 53007

Conditions at: KGNV observed 23 July 2017  10:53 UTC
Temperature: 22.8°C (73°F)
Dewpoint: 22.2°C (72°F) [RH = 96%]
Pressure (altimeter): 30.04 inches Hg (1017.4 mb)
[Sea-level pressure: 1016.9 mb]
Winds: calm
Visibility: 10 or more miles (16+ km)
Ceiling: at least 12,000 feet AGL
Clouds: sky clear below 12,000 feet AGL
Present Weather: no significant weather observed at this time
KGNV 231053Z 00000KT 10SM CLR 23/22 A3004 RMK AO2 RAE0955 SLP169 P0001 T02280222

Conditions at: KGNV observed 23 July 2017  09:53 UTC
Temperature: 22.8°C (73°F)
Dewpoint: 22.2°C (72°F) [RH = 96%]
Pressure (altimeter): 30.03 inches Hg (1017.0 mb)
[Sea-level pressure: 1016.8 mb]
Winds: from the SSE (150 degrees) at 3 MPH (3 knots; 1.6 m/s)
Visibility: 10 or more miles (16+ km)
Ceiling: 10000 feet AGL
Clouds: few clouds at 6000 feet AGL
broken clouds at 10000 feet AGL
broken clouds at 12000 feet AGL
Present Weather: -RA  (light rain)
KGNV 230953Z AUTO 15003KT 10SM -RA FEW060 BKN100 BKN120 23/22 A3003 RMK AO2 TSB0858E26 SLP168 P0024 T02280222

Conditions at: KGNV observed 23 July 2017  09:32 UTC
Temperature: 23.3°C (74°F)
Dewpoint: 22.2°C (72°F) [RH = 94%]
Pressure (altimeter): 30.03 inches Hg (1017.0 mb)
Winds: from the SE (140 degrees) at 6 MPH (5 knots; 2.6 m/s)
Visibility: 10 or more miles (16+ km)
Ceiling: 9500 feet AGL
Clouds: few clouds at 6500 feet AGL
broken clouds at 9500 feet AGL
broken clouds at 11000 feet AGL
Present Weather: -RA  (light rain)
KGNV 230932Z AUTO 14005KT 10SM -RA FEW065 BKN095 BKN110 23/22 A3003 RMK AO2 TSB0858E26 P0024 T02330222

Conditions at: KGNV observed 23 July 2017  09:13 UTC
Temperature: 23.3°C (74°F)
Dewpoint: 22.2°C (72°F) [RH = 94%]
Pressure (altimeter): 30.04 inches Hg (1017.4 mb)
Winds: variable direction winds at 5 MPH (4 knots; 2.1 m/s)
Visibility: 6 miles (10 km)
Ceiling: 3700 feet AGL
Clouds: broken clouds at 3700 feet AGL
broken clouds at 7500 feet AGL
overcast cloud deck at 10000 feet AGL
Present Weather: -TSRA BR  (light rain associated with thunderstorm(s), mist)
KGNV 230913Z AUTO VRB04KT 6SM -TSRA BR BKN037 BKN075 OVC100 23/22 A3004 RMK AO2 TSB0858 P0023 T02330222

Conditions at: KGNV observed 23 July 2017  09:01 UTC
Temperature: 23.3°C (74°F)
Dewpoint: 22.8°C (73°F) [RH = 97%]
Pressure (altimeter): 30.04 inches Hg (1017.4 mb)
Winds: from the S (170 degrees) at 3 MPH (3 knots; 1.6 m/s)
Visibility: 2.00 miles (3.22 km)
Ceiling: 3100 feet AGL
Clouds: few clouds at 800 feet AGL
overcast cloud deck at 3100 feet AGL
Present Weather: +TSRA BR  (heavy rain associated with thunderstorm(s), mist)
KGNV 230901Z AUTO 17003KT 2SM +TSRA BR FEW008 OVC031 23/23 A3004 RMK AO2 TSB0858 P0016 T02330228

Conditions at: KGNV observed 23 July 2017  08:53 UTC
Temperature: 23.3°C (74°F)
Dewpoint: 22.2°C (72°F) [RH = 94%]
Pressure (altimeter): 30.04 inches Hg (1017.4 mb)
[Sea-level pressure: 1017.0 mb]
Winds: from the S (190 degrees) at 5 MPH (4 knots; 2.1 m/s)
Visibility: 1.00 miles (1.61 km)
Ceiling: 1800 feet AGL
Clouds: few clouds at 300 feet AGL
scattered clouds at 800 feet AGL
overcast cloud deck at 1800 feet AGL
Present Weather: VCTS +RA BR  (thunderstorm in vicinity, heavy rain, mist)
KGNV 230853Z AUTO 19004KT 1SM VCTS +RA BR FEW003 SCT008 OVC018 23/22 A3004 RMK AO2 RAB29 SLP170 P0084 60084 T02330222 56001

Conditions at: KGNV observed 23 July 2017  08:48 UTC
Temperature: 23.0°C (73°F)
Dewpoint: 23.0°C (73°F) [RH = 100%]
Pressure (altimeter): 30.05 inches Hg (1017.7 mb)
Winds: from the WSW (240 degrees) at 9 MPH (8 knots; 4.2 m/s)
gusting to 20 MPH (17 knots; 8.8 m/s)
Visibility: 0.75 miles (1.21 km)
Ceiling: 1000 feet AGL
Clouds: few clouds at 300 feet AGL
broken clouds at 1000 feet AGL
Present Weather: VCTS +RA BR  (thunderstorm in vicinity, heavy rain, mist)
KGNV 230848Z AUTO 24008G17KT 3/4SM VCTS +RA BR FEW003 BKN010 23/23 A3005 RMK AO2 RAB29 P0059

Conditions at: KGNV observed 23 July 2017  08:38 UTC
Temperature: 23.9°C (75°F)
Dewpoint: 23.3°C (74°F) [RH = 96%]
Pressure (altimeter): 30.05 inches Hg (1017.7 mb)
Winds: from the WSW (250 degrees) at 7 MPH (6 knots; 3.1 m/s)
Visibility: 1.50 miles (2.41 km)
Ceiling: 800 feet AGL
Clouds: scattered clouds at 300 feet AGL
broken clouds at 800 feet AGL
broken clouds at 1300 feet AGL
Present Weather: VCTS RA BR  (thunderstorm in vicinity, rain, mist)
KGNV 230838Z AUTO 25006KT 1 1/2SM VCTS RA BR SCT003 BKN008 BKN013 24/23 A3005 RMK AO2 VIS 1/2V5 RAB29 P0011 T02390233

Conditions at: KGNV observed 23 July 2017  08:34 UTC
Temperature: 23.9°C (75°F)
Dewpoint: 23.3°C (74°F) [RH = 96%]
Pressure (altimeter): 30.04 inches Hg (1017.4 mb)
Winds: variable direction winds at 3 MPH (3 knots; 1.6 m/s)
Visibility: 2.50 miles (4.02 km)
Ceiling: 300 feet AGL
Clouds: broken clouds at 300 feet AGL
broken clouds at 1000 feet AGL
Present Weather: VCTS +RA BR  (thunderstorm in vicinity, heavy rain, mist)
KGNV 230834Z AUTO VRB03KT 2 1/2SM VCTS +RA BR BKN003 BKN010 24/23 A3004 RMK AO2 RAB29 P0004 T02390233

Conditions at: KGNV observed 23 July 2017  08:29 UTC
Temperature: 23.9°C (75°F)
Dewpoint: 23.3°C (74°F) [RH = 96%]
Pressure (altimeter): 30.04 inches Hg (1017.4 mb)
Winds: from the W (270 degrees) at 3 MPH (3 knots; 1.6 m/s)
Visibility: 8 miles (13 km)
Ceiling: at least 12,000 feet AGL
Clouds: scattered clouds at 300 feet AGL
Present Weather: VCTS -RA  (thunderstorm in vicinity, light rain)
KGNV 230829Z AUTO 27003KT 8SM VCTS -RA SCT003 24/23 A3004 RMK AO2 RAB29 P0000 T02390233

Conditions at: KGNV observed 23 July 2017  08:17 UTC
Temperature: 23.9°C (75°F)
Dewpoint: 23.3°C (74°F) [RH = 96%]
Pressure (altimeter): 30.03 inches Hg (1017.0 mb)
Winds: calm
Visibility: 10 or more miles (16+ km)
Ceiling: 4100 feet AGL
Clouds: scattered clouds at 400 feet AGL
scattered clouds at 2300 feet AGL
broken clouds at 4100 feet AGL
Present Weather: automated observation with no human augmentation;
there may or may not be significant weather present at this time
KGNV 230817Z AUTO 00000KT 10SM SCT004 SCT023 BKN041 24/23 A3003 RMK AO2 T02390233

Conditions at: KGNV observed 23 July 2017  07:53 UTC
Temperature: 23.9°C (75°F)
Dewpoint: 23.3°C (74°F) [RH = 96%]
Pressure (altimeter): 30.03 inches Hg (1017.0 mb)
[Sea-level pressure: 1016.6 mb]
Winds: calm
Visibility: 10 or more miles (16+ km)
Ceiling: at least 12,000 feet AGL
Clouds: few clouds at 2800 feet AGL
scattered clouds at 4100 feet AGL
Present Weather: automated observation with no human augmentation;
there may or may not be significant weather present at this time
KGNV 230753Z AUTO 00000KT 10SM FEW028 SCT041 24/23 A3003 RMK AO2 LTG DSNT SW SLP166 T02390233

Conditions at: KGNV observed 23 July 2017  06:53 UTC
Temperature: 23.9°C (75°F)
Dewpoint: 23.9°C (75°F) [RH = 100%]
Pressure (altimeter): 30.05 inches Hg (1017.7 mb)
[Sea-level pressure: 1017.2 mb]
Winds: from the S (190 degrees) at 3 MPH (3 knots; 1.6 m/s)
Visibility: 10 or more miles (16+ km)
Ceiling: at least 12,000 feet AGL
Clouds: scattered clouds at 300 feet AGL
Present Weather: automated observation with no human augmentation;
there may or may not be significant weather present at this time
KGNV 230653Z AUTO 19003KT 10SM SCT003 24/24 A3005 RMK AO2 SLP172 T02390239

Conditions at: KGNV observed 23 July 2017  06:21 UTC
Temperature: 23.9°C (75°F)
Dewpoint: 23.3°C (74°F) [RH = 96%]
Pressure (altimeter): 30.05 inches Hg (1017.7 mb)
Winds: from the S (170 degrees) at 5 MPH (4 knots; 2.1 m/s)
Visibility: 10 or more miles (16+ km)
Ceiling: at least 12,000 feet AGL
Clouds: few clouds at 300 feet AGL
Present Weather: automated observation with no human augmentation;
there may or may not be significant weather present at this time
KGNV 230621Z AUTO 17004KT 10SM FEW003 24/23 A3005 RMK AO2 T02390233

Conditions at: KGNV observed 23 July 2017  05:53 UTC
Temperature: 24.4°C (76°F)
Dewpoint: 23.9°C (75°F) [RH = 97%]
Pressure (altimeter): 30.05 inches Hg (1017.7 mb)
[Sea-level pressure: 1017.4 mb]
Winds: from the S (180 degrees) at 5 MPH (4 knots; 2.1 m/s)
Visibility: 10 or more miles (16+ km)
Ceiling: at least 12,000 feet AGL
Clouds: sky clear below 12,000 feet AGL
Present Weather: automated observation with no human augmentation;
there may or may not be significant weather present at this time
KGNV 230553Z AUTO 18004KT 10SM CLR 24/24 A3005 RMK AO2 SLP174 T02440239 10244 20239 58003

Conditions at: KGNV observed 23 July 2017  04:53 UTC
Temperature: 24.4°C (76°F)
Dewpoint: 23.9°C (75°F) [RH = 97%]
Pressure (altimeter): 30.06 inches Hg (1018.0 mb)
[Sea-level pressure: 1017.6 mb]
Winds: from the SSW (200 degrees) at 3 MPH (3 knots; 1.6 m/s)
Visibility: 10 or more miles (16+ km)
Ceiling: at least 12,000 feet AGL
Clouds: sky clear below 12,000 feet AGL
Present Weather: automated observation with no human augmentation;
there may or may not be significant weather present at this time
KGNV 230453Z AUTO 20003KT 10SM CLR 24/24 A3006 RMK AO2 SLP176 T02440239 403060228

Conditions at: KGNV observed 23 July 2017  03:53 UTC
Temperature: 24.4°C (76°F)
Dewpoint: 23.9°C (75°F) [RH = 97%]
Pressure (altimeter): 30.07 inches Hg (1018.4 mb)
[Sea-level pressure: 1017.8 mb]
Winds: from the SSW (200 degrees) at 7 MPH (6 knots; 3.1 m/s)
Visibility: 10 or more miles (16+ km)
Ceiling: at least 12,000 feet AGL
Clouds: few clouds at 300 feet AGL
Present Weather: automated observation with no human augmentation;
there may or may not be significant weather present at this time
KGNV 230353Z AUTO 20006KT 10SM FEW003 24/24 A3007 RMK AO2 SLP178 T02440239

Conditions at: KGNV observed 23 July 2017  03:37 UTC
Temperature: 24.4°C (76°F)
Dewpoint: 23.9°C (75°F) [RH = 97%]
Pressure (altimeter): 30.06 inches Hg (1018.0 mb)
Winds: from the S (170 degrees) at 6 MPH (5 knots; 2.6 m/s)
Visibility: 10 or more miles (16+ km)
Ceiling: at least 12,000 feet AGL
Clouds: scattered clouds at 300 feet AGL
scattered clouds at 2700 feet AGL
Present Weather: automated observation with no human augmentation;
there may or may not be significant weather present at this time
KGNV 230337Z AUTO 17005KT 10SM SCT003 SCT027 24/24 A3006 RMK AO2 T02440239

Conditions at: KGNV observed 23 July 2017  03:09 UTC
Temperature: 23.9°C (75°F)
Dewpoint: 23.9°C (75°F) [RH = 100%]
Pressure (altimeter): 30.06 inches Hg (1018.0 mb)
Winds: from the SE (140 degrees) at 5 MPH (4 knots; 2.1 m/s)
Visibility: 10 or more miles (16+ km)
Ceiling: 300 feet AGL
Clouds: broken clouds at 300 feet AGL
broken clouds at 700 feet AGL
broken clouds at 2300 feet AGL
Present Weather: automated observation with no human augmentation;
there may or may not be significant weather present at this time
KGNV 230309Z AUTO 14004KT 10SM BKN003 BKN007 BKN023 24/24 A3006 RMK AO2 T02390239

Conditions at: KGNV observed 23 July 2017  02:59 UTC
Temperature: 23.9°C (75°F)
Dewpoint: 23.3°C (74°F) [RH = 96%]
Pressure (altimeter): 30.07 inches Hg (1018.4 mb)
Winds: from the SE (140 degrees) at 3 MPH (3 knots; 1.6 m/s)
Visibility: 10 or more miles (16+ km)
Ceiling: 2300 feet AGL
Clouds: few clouds at 300 feet AGL
few clouds at 700 feet AGL
broken clouds at 2300 feet AGL
Present Weather: automated observation with no human augmentation;
there may or may not be significant weather present at this time
KGNV 230259Z AUTO 14003KT 10SM FEW003 FEW007 BKN023 24/23 A3007 RMK AO2 T02390233

Conditions at: KGNV observed 23 July 2017  02:53 UTC
Temperature: 23.9°C (75°F)
Dewpoint: 23.3°C (74°F) [RH = 96%]
Pressure (altimeter): 30.06 inches Hg (1018.0 mb)
[Sea-level pressure: 1017.7 mb]
Winds: from the SE (140 degrees) at 6 MPH (5 knots; 2.6 m/s)
Visibility: 10 or more miles (16+ km)
Ceiling: at least 12,000 feet AGL
Clouds: scattered clouds at 2300 feet AGL
scattered clouds at 3000 feet AGL
Present Weather: automated observation with no human augmentation;
there may or may not be significant weather present at this time
KGNV 230253Z AUTO 14005KT 10SM SCT023 SCT030 24/23 A3006 RMK AO2 SLP177 T02390233 50005

Conditions at: KGNV observed 23 July 2017  02:49 UTC
Temperature: 24.0°C (75°F)
Dewpoint: 23.0°C (73°F) [RH = 94%]
Pressure (altimeter): 30.07 inches Hg (1018.4 mb)
Winds: from the SE (140 degrees) at 7 MPH (6 knots; 3.1 m/s)
Visibility: 10 or more miles (16+ km)
Ceiling: 2900 feet AGL
Clouds: scattered clouds at 2300 feet AGL
broken clouds at 2900 feet AGL
Present Weather: automated observation with no human augmentation;
there may or may not be significant weather present at this time
KGNV 230249Z AUTO 14006KT 10SM SCT023 BKN029 24/23 A3007 RMK AO2

Conditions at: KGNV observed 23 July 2017  01:53 UTC
Temperature: 24.4°C (76°F)
Dewpoint: 23.3°C (74°F) [RH = 94%]
Pressure (altimeter): 30.06 inches Hg (1018.0 mb)
[Sea-level pressure: 1017.5 mb]
Winds: from the SSE (160 degrees) at 3 MPH (3 knots; 1.6 m/s)
Visibility: 10 or more miles (16+ km)
Ceiling: at least 12,000 feet AGL
Clouds: sky clear below 12,000 feet AGL
Present Weather: automated observation with no human augmentation;
there may or may not be significant weather present at this time
KGNV 230153Z AUTO 16003KT 10SM CLR 24/23 A3006 RMK AO2 SLP175 T02440233

Conditions at: KGNV observed 23 July 2017  00:53 UTC
Temperature: 24.4°C (76°F)
Dewpoint: 23.3°C (74°F) [RH = 94%]
Pressure (altimeter): 30.05 inches Hg (1017.7 mb)
[Sea-level pressure: 1017.2 mb]
Winds: calm
Visibility: 10 or more miles (16+ km)
Ceiling: at least 12,000 feet AGL
Clouds: sky clear below 12,000 feet AGL
Present Weather: no significant weather observed at this time
KGNV 230053Z 00000KT 10SM CLR 24/23 A3005 RMK AO2 SLP172 T02440233

Conditions at: KGNV observed 22 July 2017  23:53 UTC
Temperature: 23.9°C (75°F)
Dewpoint: 23.3°C (74°F) [RH = 96%]
Pressure (altimeter): 30.05 inches Hg (1017.7 mb)
[Sea-level pressure: 1017.1 mb]
Winds: from the S (180 degrees) at 3 MPH (3 knots; 1.6 m/s)
Visibility: 10 or more miles (16+ km)
Ceiling: at least 12,000 feet AGL
Clouds: few clouds at 400 feet AGL
Present Weather: no significant weather observed at this time
KGNV 222353Z 18003KT 10SM FEW004 24/23 A3005 RMK AO2 RAE27 SLP171 P0000 60105 T02390233 10278 20228 56006

Conditions at: KGNV observed 22 July 2017  23:51 UTC
Temperature: 24.0°C (75°F)
Dewpoint: 23.0°C (73°F) [RH = 94%]
Pressure (altimeter): 30.05 inches Hg (1017.7 mb)
Winds: from the S (180 degrees) at 5 MPH (4 knots; 2.1 m/s)
Visibility: 10 or more miles (16+ km)
Ceiling: at least 12,000 feet AGL
Clouds: scattered clouds at 400 feet AGL
Present Weather: no significant weather observed at this time
KGNV 222351Z 18004KT 10SM SCT004 24/23 A3005 RMK AO2 RAE27 P0000

Conditions at: KGNV observed 22 July 2017  23:35 UTC
Temperature: 23.9°C (75°F)
Dewpoint: 23.3°C (74°F) [RH = 96%]
Pressure (altimeter): 30.05 inches Hg (1017.7 mb)
Winds: from the S (180 degrees) at 3 MPH (3 knots; 1.6 m/s)
Visibility: 10 or more miles (16+ km)
Ceiling: 400 feet AGL
Clouds: broken clouds at 400 feet AGL
Present Weather: no significant weather observed at this time
KGNV 222335Z 18003KT 10SM BKN004 24/23 A3005 RMK AO2 RAE27 P0000 T02390233

Conditions at: KGNV observed 22 July 2017  23:22 UTC
Temperature: 23.9°C (75°F)
Dewpoint: 23.3°C (74°F) [RH = 96%]
Pressure (altimeter): 30.05 inches Hg (1017.7 mb)
Winds: from the S (170 degrees) at 3 MPH (3 knots; 1.6 m/s)
Visibility: 10 or more miles (16+ km)
Ceiling: 500 feet AGL
Clouds: broken clouds at 500 feet AGL
broken clouds at 4700 feet AGL
overcast cloud deck at 10000 feet AGL
Present Weather: -RA  (light rain)
KGNV 222322Z 17003KT 10SM -RA BKN005 BKN047 OVC100 24/23 A3005 RMK AO2 P0000 T02390233

Conditions at: KGNV observed 22 July 2017  23:14 UTC
Temperature: 23.9°C (75°F)
Dewpoint: 23.3°C (74°F) [RH = 96%]
Pressure (altimeter): 30.05 inches Hg (1017.7 mb)
Winds: from the S (170 degrees) at 6 MPH (5 knots; 2.6 m/s)
Visibility: 10 or more miles (16+ km)
Ceiling: 4400 feet AGL
Clouds: scattered clouds at 700 feet AGL
broken clouds at 4400 feet AGL
broken clouds at 10000 feet AGL
Present Weather: -RA  (light rain)
KGNV 222314Z 17005KT 10SM -RA SCT007 BKN044 BKN100 24/23 A3005 RMK AO2 P0000 T02390233

Conditions at: KGNV observed 22 July 2017  22:53 UTC
Temperature: 23.9°C (75°F)
Dewpoint: 23.3°C (74°F) [RH = 96%]
Pressure (altimeter): 30.06 inches Hg (1018.0 mb)
[Sea-level pressure: 1017.7 mb]
Winds: from the S (170 degrees) at 3 MPH (3 knots; 1.6 m/s)
Visibility: 10 or more miles (16+ km)
Ceiling: at least 12,000 feet AGL
Clouds: scattered clouds at 11000 feet AGL
Present Weather: -RA  (light rain)
KGNV 222253Z 17003KT 10SM -RA SCT110 24/23 A3006 RMK AO2 SLP177 P0001 T02390233

Conditions at: KGNV observed 22 July 2017  21:53 UTC
Temperature: 23.3°C (74°F)
Dewpoint: 22.8°C (73°F) [RH = 97%]
Pressure (altimeter): 30.06 inches Hg (1018.0 mb)
[Sea-level pressure: 1017.8 mb]
Winds: from the SE (140 degrees) at 6 MPH (5 knots; 2.6 m/s)
Visibility: 10 or more miles (16+ km)
Ceiling: 7500 feet AGL
Clouds: few clouds at 300 feet AGL
broken clouds at 7500 feet AGL
overcast cloud deck at 9500 feet AGL
Present Weather: -RA  (light rain)
KGNV 222153Z 14005KT 10SM -RA FEW003 BKN075 OVC095 23/23 A3006 RMK AO2 SLP178 P0003 T02330228

Conditions at: KGNV observed 22 July 2017  21:23 UTC
Temperature: 23.9°C (75°F)
Dewpoint: 22.8°C (73°F) [RH = 94%]
Pressure (altimeter): 30.07 inches Hg (1018.4 mb)
Winds: from the ESE (120 degrees) at 3 MPH (3 knots; 1.6 m/s)
Visibility: 10 or more miles (16+ km)
Ceiling: 10000 feet AGL
Clouds: scattered clouds at 600 feet AGL
overcast cloud deck at 10000 feet AGL
Present Weather: -RA  (light rain)
KGNV 222123Z 12003KT 10SM -RA SCT006 OVC100 24/23 A3007 RMK AO2 P0002 T02390228

Conditions at: KGNV observed 22 July 2017  20:53 UTC
Temperature: 23.9°C (75°F)
Dewpoint: 22.8°C (73°F) [RH = 94%]
Pressure (altimeter): 30.08 inches Hg (1018.7 mb)
[Sea-level pressure: 1018.4 mb]
Winds: calm
Visibility: 10 or more miles (16+ km)
Ceiling: 11000 feet AGL
Clouds: overcast cloud deck at 11000 feet AGL
Present Weather: -RA  (light rain)
KGNV 222053Z 00000KT 10SM -RA OVC110 24/23 A3008 RMK AO2 SLP184 P0004 60101 T02390228 53003

Conditions at: KGNV observed 22 July 2017  20:35 UTC
Temperature: 23.9°C (75°F)
Dewpoint: 22.8°C (73°F) [RH = 94%]
Pressure (altimeter): 30.09 inches Hg (1019.0 mb)
Winds: calm
Visibility: 10 or more miles (16+ km)
Ceiling: 11000 feet AGL
Clouds: broken clouds at 11000 feet AGL
Present Weather: -RA  (light rain)
KGNV 222035Z 00000KT 10SM -RA BKN110 24/23 A3009 RMK AO2 P0002 T02390228

Conditions at: KGNV observed 22 July 2017  20:20 UTC
Temperature: 23.3°C (74°F)
Dewpoint: 22.8°C (73°F) [RH = 97%]
Pressure (altimeter): 30.08 inches Hg (1018.7 mb)
Winds: calm
Visibility: 10 or more miles (16+ km)
Ceiling: at least 12,000 feet AGL
Clouds: few clouds at 11000 feet AGL
Present Weather: VCTS -RA  (thunderstorm in vicinity, light rain)
KGNV 222020Z 00000KT 10SM VCTS -RA FEW110 23/23 A3008 RMK AO2 LTG DSNT NE AND E P0001 T02330228

Conditions at: KGNV observed 22 July 2017  19:53 UTC
Temperature: 23.3°C (74°F)
Dewpoint: 22.8°C (73°F) [RH = 97%]
Pressure (altimeter): 30.05 inches Hg (1017.7 mb)
[Sea-level pressure: 1017.5 mb]
Winds: calm
Visibility: 7 miles (11 km)
Ceiling: at least 12,000 feet AGL
Clouds: scattered clouds at 12000 feet AGL
Present Weather: -RA  (light rain)
KGNV 221953Z 00000KT 7SM -RA SCT120 23/23 A3005 RMK AO2 LTG DSNT NE TSE11 SLP175 P0006 T02330228

Conditions at: KGNV observed 22 July 2017  19:25 UTC
Temperature: 23.3°C (74°F)
Dewpoint: 22.2°C (72°F) [RH = 94%]
Pressure (altimeter): 30.07 inches Hg (1018.4 mb)
Winds: from the S (170 degrees) at 6 MPH (5 knots; 2.6 m/s)
Visibility: 9 miles (14 km)
Ceiling: at least 12,000 feet AGL
Clouds: scattered clouds at 12000 feet AGL
Present Weather: -RA  (light rain)
KGNV 221925Z 17005KT 9SM -RA SCT120 23/22 A3007 RMK AO2 LTG DSNT NE AND E TSE11 P0003 T02330222

Conditions at: KGNV observed 22 July 2017  19:17 UTC
Temperature: 23.3°C (74°F)
Dewpoint: 22.2°C (72°F) [RH = 94%]
Pressure (altimeter): 30.08 inches Hg (1018.7 mb)
Winds: from the S (170 degrees) at 6 MPH (5 knots; 2.6 m/s)
Visibility: 10 or more miles (16+ km)
Ceiling: at least 12,000 feet AGL
Clouds: few clouds at 10000 feet AGL
scattered clouds at 12000 feet AGL
Present Weather: VCTS -RA  (thunderstorm in vicinity, light rain)
KGNV 221917Z 17005KT 10SM VCTS -RA FEW100 SCT120 23/22 A3008 RMK AO2 LTG DSNT NE-SE TSE11 PRESFR P0002 T02330222

Conditions at: KGNV observed 22 July 2017  19:09 UTC
Temperature: 23.3°C (74°F)
Dewpoint: 22.2°C (72°F) [RH = 94%]
Pressure (altimeter): 30.09 inches Hg (1019.0 mb)
Winds: from the S (190 degrees) at 7 MPH (6 knots; 3.1 m/s)
Visibility: 10 or more miles (16+ km)
Ceiling: 9500 feet AGL
Clouds: few clouds at 700 feet AGL
scattered clouds at 7000 feet AGL
broken clouds at 9500 feet AGL
Present Weather: -TSRA  (light rain associated with thunderstorm(s))
KGNV 221909Z 19006KT 10SM -TSRA FEW007 SCT070 BKN095 23/22 A3009 RMK AO2 LTG DSNT NE-SE P0002 T02330222

Conditions at: KGNV observed 22 July 2017  18:53 UTC
Temperature: 22.8°C (73°F)
Dewpoint: 21.7°C (71°F) [RH = 94%]
Pressure (altimeter): 30.10 inches Hg (1019.4 mb)
[Sea-level pressure: 1018.9 mb]
Winds: from the W (260 degrees) at 7 MPH (6 knots; 3.1 m/s)
Visibility: 3 miles (5 km)
Ceiling: 7500 feet AGL
Clouds: scattered clouds at 3600 feet AGL
broken clouds at 7500 feet AGL
overcast cloud deck at 10000 feet AGL
Present Weather: TSRA BR  (rain associated with thunderstorm(s), mist)
KGNV 221853Z 26006KT 3SM TSRA BR SCT036 BKN075 OVC100 23/22 A3010 RMK AO2 PK WND 24027/1808 LTG DSNT NE-SE RAB10 TSE1759B20 SLP189 P0091 T02280217

Conditions at: KGNV observed 22 July 2017  18:42 UTC
Temperature: 22.8°C (73°F)
Dewpoint: 22.8°C (73°F) [RH = 100%]
Pressure (altimeter): 30.10 inches Hg (1019.4 mb)
Winds: from the WSW (250 degrees) at 3 MPH (3 knots; 1.6 m/s)
Visibility: 1.00 miles (1.61 km)
Ceiling: 3400 feet AGL
Clouds: broken clouds at 3400 feet AGL
broken clouds at 7000 feet AGL
overcast cloud deck at 11000 feet AGL
Present Weather: +TSRA BR  (heavy rain associated with thunderstorm(s), mist)
KGNV 221842Z 25003KT 1SM +TSRA BR BKN034 BKN070 OVC110 23/23 A3010 RMK AO2 PK WND 24027/1808 LTG DSNT ALQDS RAB10 TSE1759B20 P0086 T02280228

Conditions at: KGNV observed 22 July 2017  18:33 UTC
Temperature: 22.8°C (73°F)
Dewpoint: 22.2°C (72°F) [RH = 96%]
Pressure (altimeter): 30.09 inches Hg (1019.0 mb)
Winds: from the W (270 degrees) at 7 MPH (6 knots; 3.1 m/s)
gusting to 24 MPH (21 knots; 10.9 m/s)
Visibility: 0.50 miles (0.80 km)
Ceiling: 1900 feet AGL
Clouds: few clouds at 700 feet AGL
broken clouds at 1900 feet AGL
overcast cloud deck at 11000 feet AGL
Present Weather: +TSRA FG  (heavy rain associated with thunderstorm(s), fog)
KGNV 221833Z 27006G21KT 1/2SM +TSRA FG FEW007 BKN019 OVC110 23/22 A3009 RMK AO2 PK WND 24027/1808 LTG DSNT ALQDS RAB10 TSE1759B20 P0067 T02280222

Conditions at: KGNV observed 22 July 2017  18:26 UTC
Temperature: 23.3°C (74°F)
Dewpoint: 22.2°C (72°F) [RH = 94%]
Pressure (altimeter): 30.10 inches Hg (1019.4 mb)
Winds: from the W (280 degrees) at 18 MPH (16 knots; 8.3 m/s)
Visibility: 0.25 miles (0.40 km)
Ceiling: 1300 feet AGL
Clouds: broken clouds at 1300 feet AGL
broken clouds at 2800 feet AGL
overcast cloud deck at 11000 feet AGL
Present Weather: +TSRA FG  (heavy rain associated with thunderstorm(s), fog)
KGNV 221826Z 28016KT 1/4SM +TSRA FG BKN013 BKN028 OVC110 23/22 A3010 RMK AO2 PK WND 24027/1808 LTG DSNT ALQDS RAB10 TSE1759B20 P0032 T02330222

Conditions at: KGNV observed 22 July 2017  18:20 UTC
Temperature: 23.9°C (75°F)
Dewpoint: 22.8°C (73°F) [RH = 94%]
Pressure (altimeter): 30.10 inches Hg (1019.4 mb)
Winds: from the W (260 degrees) at 18 MPH (16 knots; 8.3 m/s)
gusting to 30 MPH (26 knots; 13.5 m/s)
Visibility: 0.75 miles (1.21 km)
Ceiling: 3800 feet AGL
Clouds: few clouds at 700 feet AGL
broken clouds at 3800 feet AGL
overcast cloud deck at 9500 feet AGL
Present Weather: +TSRA BR  (heavy rain associated with thunderstorm(s), mist)
KGNV 221820Z 26016G26KT 3/4SM +TSRA BR FEW007 BKN038 OVC095 24/23 A3010 RMK AO2 PK WND 24027/1808 LTG DSNT ALQDS RAB10 TSE1759B20 P0004 T02390228

Conditions at: KGNV observed 22 July 2017  18:17 UTC
Temperature: 23.9°C (75°F)
Dewpoint: 22.8°C (73°F) [RH = 94%]
Pressure (altimeter): 30.11 inches Hg (1019.7 mb)
Winds: from the WSW (250 degrees) at 18 MPH (16 knots; 8.3 m/s)
gusting to 31 MPH (27 knots; 14.0 m/s)
Visibility: 2.00 miles (3.22 km)
Ceiling: 2800 feet AGL
Clouds: few clouds at 700 feet AGL
broken clouds at 2800 feet AGL
overcast cloud deck at 9000 feet AGL
Present Weather: VCTS +RA BR  (thunderstorm in vicinity, heavy rain, mist)
KGNV 221817Z 25016G27KT 2SM VCTS +RA BR FEW007 BKN028 OVC090 24/23 A3011 RMK AO2 PK WND 24027/1808 LTG DSNT ALQDS RAB10 TSE1759 PRESRR P0000 T02390228

Conditions at: KGNV observed 22 July 2017  18:05 UTC
Temperature: 27.2°C (81°F)
Dewpoint: 23.3°C (74°F) [RH = 79%]
Pressure (altimeter): 30.07 inches Hg (1018.4 mb)
Winds: from the W (260 degrees) at 10 MPH (9 knots; 4.7 m/s)
gusting to 18 MPH (16 knots; 8.3 m/s)
Visibility: 10 or more miles (16+ km)
Ceiling: 4200 feet AGL
Clouds: scattered clouds at 3000 feet AGL
broken clouds at 4200 feet AGL
overcast cloud deck at 9000 feet AGL
Present Weather: VCTS  (thunderstorm in vicinity)
KGNV 221805Z 26009G16KT 10SM VCTS SCT030 BKN042 OVC090 27/23 A3007 RMK AO2 LTG DSNT ALQDS TSE1759 T02720233

Conditions at: KGNV observed 22 July 2017  17:53 UTC
Temperature: 27.2°C (81°F)
Dewpoint: 22.2°C (72°F) [RH = 74%]
Pressure (altimeter): 30.07 inches Hg (1018.4 mb)
[Sea-level pressure: 1018.0 mb]
Winds: from the W (280 degrees) at 7 MPH (6 knots; 3.1 m/s)
Visibility: 10 or more miles (16+ km)
Ceiling: 3000 feet AGL
Clouds: broken clouds at 3000 feet AGL
broken clouds at 4000 feet AGL
broken clouds at 8000 feet AGL
Present Weather: TS  (thunderstorm)
KGNV 221753Z 28006KT 10SM TS BKN030 BKN040 BKN080 27/22 A3007 RMK AO2 LTG DSNT ALQDS TSB29 SLP180 60000 T02720222 10306 20244 58011

Conditions at: KGNV observed 22 July 2017  17:29 UTC
Temperature: 30.6°C (87°F)
Dewpoint: 24.4°C (76°F) [RH = 70%]
Pressure (altimeter): 30.08 inches Hg (1018.7 mb)
Winds: variable direction winds at 5 MPH (4 knots; 2.1 m/s)
Visibility: 10 or more miles (16+ km)
Ceiling: at least 12,000 feet AGL
Clouds: sky clear below 12,000 feet AGL
Present Weather: TS  (thunderstorm)
KGNV 221729Z VRB04KT 10SM TS CLR 31/24 A3008 RMK AO2 LTG DSNT ALQDS TSB29 T03060244

Conditions at: KGNV observed 22 July 2017  16:53 UTC
Temperature: 28.9°C (84°F)
Dewpoint: 23.9°C (75°F) [RH = 74%]
Pressure (altimeter): 30.09 inches Hg (1019.0 mb)
[Sea-level pressure: 1018.5 mb]
Winds: from the ESE (110 degrees) at 6 MPH (5 knots; 2.6 m/s)
Visibility: 10 or more miles (16+ km)
Ceiling: at least 12,000 feet AGL
Clouds: few clouds at 2700 feet AGL
few clouds at 8500 feet AGL
Present Weather: no significant weather observed at this time
KGNV 221653Z 11005KT 10SM FEW027 FEW085 29/24 A3009 RMK AO2 LTG DSNT SE AND W AND NW RAE21 SLP185 P0000 T02890239

Conditions at: KGNV observed 22 July 2017  16:34 UTC
Temperature: 29.4°C (85°F)
Dewpoint: 23.3°C (74°F) [RH = 70%]
Pressure (altimeter): 30.09 inches Hg (1019.0 mb)
Winds: from the S (170 degrees) at 5 MPH (4 knots; 2.1 m/s)
Visibility: 10 or more miles (16+ km)
Ceiling: at least 12,000 feet AGL
Clouds: few clouds at 3300 feet AGL
Present Weather: no significant weather observed at this time
KGNV 221634Z 17004KT 10SM FEW033 29/23 A3009 RMK AO2 LTG DSNT ALQDS RAE21 P0000 T02940233

Conditions at: KGNV observed 22 July 2017  16:03 UTC
Temperature: 28.3°C (83°F)
Dewpoint: 24.4°C (76°F) [RH = 79%]
Pressure (altimeter): 30.10 inches Hg (1019.4 mb)
Winds: from the WNW (290 degrees) at 6 MPH (5 knots; 2.6 m/s)
Visibility: 10 or more miles (16+ km)
Ceiling: 4100 feet AGL
Clouds: broken clouds at 4100 feet AGL
broken clouds at 6000 feet AGL
overcast cloud deck at 7500 feet AGL
Present Weather: VCTS -RA  (thunderstorm in vicinity, light rain)
KGNV 221603Z 29005KT 10SM VCTS -RA BKN041 BKN060 OVC075 28/24 A3010 RMK AO2 LTG DSNT SE P0000 T02830244

Conditions at: KGNV observed 22 July 2017  15:53 UTC
Temperature: 27.8°C (82°F)
Dewpoint: 25.0°C (77°F) [RH = 85%]
Pressure (altimeter): 30.10 inches Hg (1019.4 mb)
[Sea-level pressure: 1018.9 mb]
Winds: from the SW (230 degrees) at 8 MPH (7 knots; 3.6 m/s)
Visibility: 10 or more miles (16+ km)
Ceiling: at least 12,000 feet AGL
Clouds: scattered clouds at 3000 feet AGL
Present Weather: -RA  (light rain)
KGNV 221553Z 23007KT 10SM -RA SCT030 28/25 A3010 RMK AO2 LTG DSNT SE RAB24 SLP189 P0000 T02780250

Conditions at: KGNV observed 22 July 2017  15:40 UTC
Temperature: 27.8°C (82°F)
Dewpoint: 23.9°C (75°F) [RH = 79%]
Pressure (altimeter): 30.11 inches Hg (1019.7 mb)
Winds: from the WSW (240 degrees) at 8 MPH (7 knots; 3.6 m/s)
Visibility: 9 miles (14 km)
Ceiling: at least 12,000 feet AGL
Clouds: scattered clouds at 3000 feet AGL
Present Weather: -RA  (light rain)
KGNV 221540Z 24007KT 9SM -RA SCT030 28/24 A3011 RMK AO2 LTG DSNT SE RAB24 P0000 T02780239

Conditions at: KGNV observed 22 July 2017  15:25 UTC
Temperature: 28.3°C (83°F)
Dewpoint: 23.9°C (75°F) [RH = 77%]
Pressure (altimeter): 30.10 inches Hg (1019.4 mb)
Winds: from the SW (220 degrees) at 12 MPH (10 knots; 5.2 m/s)
Visibility: 9 miles (14 km)
Ceiling: at least 12,000 feet AGL
Clouds: scattered clouds at 3000 feet AGL
Present Weather: VCTS -RA  (thunderstorm in vicinity, light rain)
KGNV 221525Z 22010KT 9SM VCTS -RA SCT030 28/24 A3010 RMK AO2 LTG DSNT SE RAB24 P0000 T02830239

Conditions at: KGNV observed 22 July 2017  14:53 UTC
Temperature: 30.0°C (86°F)
Dewpoint: 23.9°C (75°F) [RH = 70%]
Pressure (altimeter): 30.10 inches Hg (1019.4 mb)
[Sea-level pressure: 1019.1 mb]
Winds: variable direction winds at 5 MPH (4 knots; 2.1 m/s)
Visibility: 10 or more miles (16+ km)
Ceiling: at least 12,000 feet AGL
Clouds: few clouds at 2300 feet AGL
Present Weather: no significant weather observed at this time
KGNV 221453Z VRB04KT 10SM FEW023 30/24 A3010 RMK AO2 SLP191 T03000239 50006

Conditions at: KGNV observed 22 July 2017  13:53 UTC
Temperature: 28.3°C (83°F)
Dewpoint: 23.9°C (75°F) [RH = 77%]
Pressure (altimeter): 30.12 inches Hg (1020.1 mb)
[Sea-level pressure: 1019.5 mb]
Winds: from the S (170 degrees) at 6 MPH (5 knots; 2.6 m/s)
Visibility: 10 or more miles (16+ km)
Ceiling: at least 12,000 feet AGL
Clouds: sky clear below 12,000 feet AGL
Present Weather: no significant weather observed at this time
KGNV 221353Z 17005KT 10SM CLR 28/24 A3012 RMK AO2 SLP195 T02830239

Conditions at: KGNV observed 22 July 2017  12:53 UTC
Temperature: 26.7°C (80°F)
Dewpoint: 23.9°C (75°F) [RH = 85%]
Pressure (altimeter): 30.11 inches Hg (1019.7 mb)
[Sea-level pressure: 1019.3 mb]
Winds: from the S (180 degrees) at 5 MPH (4 knots; 2.1 m/s)
Visibility: 10 or more miles (16+ km)
Ceiling: at least 12,000 feet AGL
Clouds: sky clear below 12,000 feet AGL
Present Weather: no significant weather observed at this time
KGNV 221253Z 18004KT 10SM CLR 27/24 A3011 RMK AO2 SLP193 T02670239

Conditions at: KGNV observed 22 July 2017  11:53 UTC
Temperature: 24.4°C (76°F)
Dewpoint: 22.8°C (73°F) [RH = 91%]
Pressure (altimeter): 30.09 inches Hg (1019.0 mb)
[Sea-level pressure: 1018.5 mb]
Winds: calm
Visibility: 10 or more miles (16+ km)
Ceiling: at least 12,000 feet AGL
Clouds: sky clear below 12,000 feet AGL
Present Weather: no significant weather observed at this time
KGNV 221153Z 00000KT 10SM CLR 24/23 A3009 RMK AO2 SLP185 T02440228 10244 20228 53015

Conditions at: KGNV observed 22 July 2017  10:53 UTC
Temperature: 22.8°C (73°F)
Dewpoint: 22.2°C (72°F) [RH = 96%]
Pressure (altimeter): 30.07 inches Hg (1018.4 mb)
[Sea-level pressure: 1017.8 mb]
Winds: calm
Visibility: 10 or more miles (16+ km)
Ceiling: at least 12,000 feet AGL
Clouds: sky clear below 12,000 feet AGL
Present Weather: no significant weather observed at this time
KGNV 221053Z 00000KT 10SM CLR 23/22 A3007 RMK AO2 SLP178 T02280222

Conditions at: KGNV observed 22 July 2017  09:53 UTC
Temperature: 22.8°C (73°F)
Dewpoint: 22.2°C (72°F) [RH = 96%]
Pressure (altimeter): 30.06 inches Hg (1018.0 mb)
[Sea-level pressure: 1017.6 mb]
Winds: calm
Visibility: 10 or more miles (16+ km)
Ceiling: at least 12,000 feet AGL
Clouds: sky clear below 12,000 feet AGL
Present Weather: automated observation with no human augmentation;
there may or may not be significant weather present at this time
KGNV 220953Z AUTO 00000KT 10SM CLR 23/22 A3006 RMK AO2 SLP176 T02280222

Conditions at: KGNV observed 22 July 2017  08:53 UTC
Temperature: 23.3°C (74°F)
Dewpoint: 22.2°C (72°F) [RH = 94%]
Pressure (altimeter): 30.04 inches Hg (1017.4 mb)
[Sea-level pressure: 1017.0 mb]
Winds: calm
Visibility: 10 or more miles (16+ km)
Ceiling: at least 12,000 feet AGL
Clouds: sky clear below 12,000 feet AGL
Present Weather: automated observation with no human augmentation;
there may or may not be significant weather present at this time
KGNV 220853Z AUTO 00000KT 10SM CLR 23/22 A3004 RMK AO2 SLP170 T02330222 55007